createdAt,value
2023-04-03T00:01:39.280Z,85.49
2023-04-03T00:04:07.287Z,85.51
2023-04-03T00:06:36.243Z,84.89
2023-04-03T00:09:04.438Z,83.86
2023-04-03T00:11:32.463Z,83.22
2023-04-03T00:14:00.775Z,82.70
2023-04-03T00:16:32.088Z,81.76
2023-04-03T00:19:00.839Z,81.07
2023-04-03T00:21:29.392Z,80.27
2023-04-03T00:23:57.520Z,80.95
2023-04-03T00:26:25.784Z,80.97
2023-04-03T00:28:54.025Z,80.53
2023-04-03T00:31:22.361Z,81.01
2023-04-03T00:33:55.029Z,80.67
2023-04-03T00:36:24.083Z,79.45
2023-04-03T00:38:52.667Z,78.11
2023-04-03T00:41:21.239Z,77.96
2023-04-03T00:43:51.772Z,78.29
2023-04-03T00:46:20.114Z,79.22
2023-04-03T00:48:49.692Z,78.54
2023-04-03T00:51:25.208Z,77.87
2023-04-03T00:53:59.735Z,77.88
2023-04-03T00:56:31.155Z,77.24
2023-04-03T00:59:07.434Z,76.50
2023-04-03T01:01:38.819Z,76.63
2023-04-03T01:04:38.031Z,76.28
2023-04-03T01:07:17.844Z,75.82
2023-04-03T01:09:48.263Z,75.29
2023-04-03T01:12:28.324Z,75.75
2023-04-03T01:14:59.684Z,76.02
2023-04-03T01:17:35.788Z,75.43
2023-04-03T01:20:29.526Z,75.83
2023-04-03T01:22:58.178Z,75.77
2023-04-03T01:25:26.991Z,75.76
2023-04-03T01:27:55.972Z,75.95
2023-04-03T01:30:31.112Z,76.37
2023-04-03T01:33:00.116Z,76.08
2023-04-03T01:35:28.497Z,75.43
2023-04-03T01:37:56.656Z,75.50
2023-04-03T01:40:25.148Z,75.18
2023-04-03T01:42:53.190Z,74.71
2023-04-03T01:45:21.590Z,74.63
2023-04-03T01:47:50.955Z,75.52
2023-04-03T01:50:19.385Z,76.21
2023-04-03T01:52:48.195Z,76.63
2023-04-03T01:55:16.851Z,75.95
2023-04-03T01:57:45.022Z,75.87
2023-04-03T02:00:14.093Z,75.83
2023-04-03T02:02:42.912Z,75.38
2023-04-03T02:05:11.011Z,75.98
2023-04-03T02:07:39.154Z,76.68
2023-04-03T02:10:07.770Z,76.01
2023-04-03T02:12:36.085Z,76.10
2023-04-03T02:15:04.697Z,76.33
2023-04-03T02:17:32.826Z,76.71
2023-04-03T02:20:00.989Z,76.68
2023-04-03T02:22:29.017Z,76.69
2023-04-03T02:24:57.189Z,76.93
2023-04-03T02:27:25.375Z,77.06
2023-04-03T02:29:53.433Z,77.03
2023-04-03T02:32:21.862Z,77.30
2023-04-03T02:34:50.397Z,77.28
2023-04-03T02:37:18.994Z,77.25
2023-04-03T02:39:47.773Z,77.13
2023-04-03T02:42:16.656Z,77.27
2023-04-03T02:44:45.676Z,77.22
2023-04-03T02:47:14.311Z,77.69
2023-04-03T02:49:47.535Z,77.78
2023-04-03T02:52:16.118Z,78.13
2023-04-03T02:54:44.297Z,78.35
2023-04-03T02:57:12.806Z,78.43
2023-04-03T02:59:41.773Z,77.93
2023-04-03T03:02:10.911Z,78.19
2023-04-03T03:04:39.018Z,78.52
2023-04-03T03:07:07.128Z,78.72
2023-04-03T03:09:35.183Z,79.00
2023-04-03T03:12:03.261Z,79.04
2023-04-03T03:14:31.646Z,79.39
2023-04-03T03:16:59.819Z,78.83
2023-04-03T03:19:28.914Z,79.13
2023-04-03T03:21:58.005Z,79.33
2023-04-03T03:24:26.628Z,79.64
2023-04-03T03:26:55.988Z,79.35
2023-04-03T03:29:24.071Z,79.53
2023-04-03T03:31:52.248Z,79.86
2023-04-03T03:34:20.822Z,79.72
2023-04-03T03:36:49.190Z,79.57
2023-04-03T03:39:18.191Z,79.67
2023-04-03T03:41:47.182Z,80.00
2023-04-03T03:44:16.275Z,80.45
2023-04-03T03:46:44.600Z,80.91
2023-04-03T03:49:13.451Z,80.57
2023-04-03T03:51:42.239Z,80.88
2023-04-03T03:54:10.929Z,81.03
2023-04-03T03:56:39.432Z,81.25
2023-04-03T03:59:07.792Z,81.34
2023-04-03T04:01:36.268Z,81.56
2023-04-03T04:04:05.138Z,81.78
2023-04-03T04:06:33.541Z,81.98
2023-04-03T04:09:04.354Z,81.39
2023-04-03T04:11:34.855Z,81.83
2023-04-03T04:14:05.947Z,81.75
2023-04-03T04:16:34.589Z,81.40
2023-04-03T04:19:07.722Z,81.66
2023-04-03T04:21:38.159Z,81.72
2023-04-03T04:24:07.472Z,81.52
2023-04-03T04:26:36.240Z,81.51
2023-04-03T04:29:04.829Z,81.51
2023-04-03T04:31:34.225Z,81.21
2023-04-03T04:34:02.409Z,81.52
2023-04-03T04:36:31.107Z,81.30
2023-04-03T04:39:00.000Z,81.01
2023-04-03T04:41:28.667Z,81.17
2023-04-03T04:43:57.656Z,80.83
2023-04-03T04:46:26.405Z,80.66
2023-04-03T04:48:57.087Z,80.55
2023-04-03T04:51:27.495Z,80.60
2023-04-03T04:53:56.870Z,80.38
2023-04-03T04:56:26.639Z,80.28
2023-04-03T04:58:56.056Z,80.20
2023-04-03T05:01:24.562Z,79.74
2023-04-03T05:04:01.183Z,80.02
2023-04-03T05:06:31.274Z,79.80
2023-04-03T05:09:00.315Z,79.49
2023-04-03T05:11:28.876Z,78.95
2023-04-03T05:13:57.257Z,78.61
2023-04-03T05:16:26.801Z,76.58
2023-04-03T05:18:55.245Z,74.24
2023-04-03T05:21:26.181Z,69.90
2023-04-03T05:23:54.461Z,66.87
2023-04-03T05:26:22.818Z,64.95
2023-04-03T05:28:51.628Z,61.89
2023-04-03T05:31:20.649Z,58.13
2023-04-03T05:33:49.739Z,53.66
2023-04-03T05:36:19.776Z,51.67
2023-04-03T05:38:49.872Z,51.10
2023-04-03T05:41:18.760Z,52.09
2023-04-03T05:43:47.634Z,51.74
2023-04-03T05:46:18.233Z,51.50
2023-04-03T05:48:48.081Z,51.29
2023-04-03T05:51:29.321Z,51.66
2023-04-03T05:54:08.394Z,53.06
2023-04-03T05:56:48.990Z,54.68
2023-04-03T05:59:18.306Z,55.80
2023-04-03T06:01:47.369Z,57.16
2023-04-03T06:04:16.263Z,58.36
2023-04-03T06:06:52.581Z,59.46
2023-04-03T06:09:27.332Z,60.72
2023-04-03T06:11:56.125Z,61.74
2023-04-03T06:14:25.428Z,63.58
2023-04-03T06:16:55.349Z,64.67
2023-04-03T06:19:24.292Z,65.05
2023-04-03T06:21:55.130Z,63.94
2023-04-03T06:24:25.082Z,62.40
2023-04-03T06:26:53.959Z,62.94
2023-04-03T06:29:23.016Z,63.59
2023-04-03T06:31:58.394Z,64.04
2023-04-03T06:34:32.716Z,65.06
2023-04-03T06:37:00.685Z,65.52
2023-04-03T06:39:29.104Z,65.49
2023-04-03T06:41:57.135Z,66.17
2023-04-03T06:44:32.075Z,66.64
2023-04-03T06:47:00.662Z,66.58
2023-04-03T06:49:30.166Z,66.69
2023-04-03T06:52:00.882Z,66.83
2023-04-03T06:54:30.197Z,67.78
2023-04-03T06:56:59.096Z,68.00
2023-04-03T06:59:35.153Z,67.78
2023-04-03T07:02:04.476Z,67.83
2023-04-03T07:04:33.013Z,67.52
2023-04-03T07:07:01.511Z,68.07
2023-04-03T07:09:29.609Z,68.25
2023-04-03T07:11:57.800Z,68.75
2023-04-03T07:14:26.376Z,68.17
2023-04-03T07:16:57.079Z,68.10
2023-04-03T07:19:28.589Z,68.15
2023-04-03T07:22:00.099Z,68.30
2023-04-03T07:24:28.257Z,68.20
2023-04-03T07:26:56.735Z,67.76
2023-04-03T07:29:24.939Z,68.20
2023-04-03T07:31:53.631Z,67.01
2023-04-03T07:34:22.672Z,66.46
2023-04-03T07:36:50.663Z,65.94
2023-04-03T07:39:20.069Z,66.05
2023-04-03T07:41:48.722Z,65.97
2023-04-03T07:44:17.140Z,66.06
2023-04-03T07:46:45.310Z,66.11
2023-04-03T07:49:24.162Z,66.15
2023-04-03T07:51:52.820Z,65.26
2023-04-03T07:54:22.120Z,65.68
2023-04-03T07:56:50.432Z,65.58
2023-04-03T07:59:18.588Z,66.09
2023-04-03T08:01:46.951Z,66.30
2023-04-03T08:04:15.263Z,66.43
2023-04-03T08:06:46.937Z,66.80
2023-04-03T08:09:35.948Z,66.75
2023-04-03T08:12:04.226Z,66.86
2023-04-03T08:14:38.130Z,66.56
2023-04-03T08:17:06.738Z,65.82
2023-04-03T08:19:45.232Z,66.11
2023-04-03T08:22:21.115Z,65.83
2023-04-03T08:24:58.675Z,65.08
2023-04-03T08:27:28.388Z,64.71
2023-04-03T08:29:59.554Z,63.97
2023-04-03T08:32:37.140Z,63.43
2023-04-03T08:35:28.188Z,64.52
2023-04-03T08:37:56.468Z,63.73
2023-04-03T08:40:27.768Z,63.41
2023-04-03T08:43:01.752Z,63.46
2023-04-03T08:45:39.544Z,62.51
2023-04-03T08:48:26.918Z,60.85
2023-04-03T08:51:14.137Z,60.16
2023-04-03T08:53:59.605Z,60.44
2023-04-03T08:56:28.160Z,60.11
2023-04-03T08:59:10.658Z,59.78
2023-04-03T09:01:43.437Z,59.55
2023-04-03T09:04:18.256Z,59.12
2023-04-03T09:07:06.154Z,59.17
2023-04-03T09:09:43.614Z,58.13
2023-04-03T09:12:31.041Z,58.14
2023-04-03T09:15:20.063Z,58.60
2023-04-03T09:18:16.322Z,56.60
2023-04-03T09:21:06.146Z,57.93
2023-04-03T09:23:34.534Z,58.62
2023-04-03T09:26:15.674Z,58.45
2023-04-03T09:28:50.315Z,58.86
2023-04-03T09:31:32.178Z,59.01
2023-04-03T09:34:08.299Z,58.17
2023-04-03T09:36:48.650Z,58.58
2023-04-03T09:39:23.983Z,58.64
2023-04-03T09:41:59.737Z,58.16
2023-04-03T09:44:33.943Z,58.06
2023-04-03T09:47:29.222Z,58.54
2023-04-03T09:50:20.266Z,59.52
2023-04-03T09:52:52.867Z,60.38
2023-04-03T09:55:30.950Z,60.52
2023-04-03T09:58:01.839Z,59.74
2023-04-03T10:00:37.913Z,60.22
2023-04-03T10:03:24.264Z,59.44
2023-04-03T10:05:55.022Z,59.47
2023-04-03T10:08:35.672Z,59.51
2023-04-03T10:11:20.687Z,57.81
2023-04-03T10:14:04.053Z,57.82
2023-04-03T10:16:55.414Z,58.15
2023-04-03T10:19:40.194Z,57.66
2023-04-03T10:22:17.528Z,59.21
2023-04-03T10:24:48.536Z,59.60
2023-04-03T10:27:33.944Z,58.91
2023-04-03T10:30:33.172Z,58.46
2023-04-03T10:33:14.941Z,59.28
2023-04-03T10:36:01.061Z,59.21
2023-04-03T10:38:56.637Z,59.53
2023-04-03T10:41:49.717Z,59.80
2023-04-03T10:44:54.958Z,59.98
2023-04-03T10:47:35.070Z,59.54
2023-04-03T10:50:09.133Z,60.79
2023-04-03T10:53:04.023Z,59.99
2023-04-03T10:55:59.798Z,59.89
2023-04-03T10:58:44.833Z,60.26
2023-04-03T11:01:21.607Z,59.90
2023-04-03T11:03:57.752Z,58.76
2023-04-03T11:06:31.971Z,60.10
2023-04-03T11:09:08.648Z,60.69
2023-04-03T11:11:41.206Z,61.13
2023-04-03T11:14:23.428Z,61.26
2023-04-03T11:17:21.505Z,61.44
2023-04-03T11:19:55.687Z,61.69
2023-04-03T11:22:35.247Z,62.28
2023-04-03T11:25:12.684Z,62.74
2023-04-03T11:28:02.848Z,62.97
2023-04-03T11:30:51.171Z,63.04
2023-04-03T11:33:38.442Z,63.16
2023-04-03T11:36:24.992Z,63.62
2023-04-03T11:39:01.073Z,63.92
2023-04-03T11:41:33.450Z,64.65
2023-04-03T11:44:27.333Z,64.35
2023-04-03T11:47:04.098Z,64.47
2023-04-03T11:49:54.503Z,64.85
2023-04-03T11:52:49.409Z,65.04
2023-04-03T11:55:23.717Z,65.18
2023-04-03T11:58:00.899Z,65.57
2023-04-03T12:00:47.790Z,65.80
2023-04-03T12:03:25.867Z,65.79
2023-04-03T12:06:18.174Z,65.52
2023-04-03T12:08:51.691Z,65.55
2023-04-03T12:11:30.048Z,65.70
2023-04-03T12:13:58.276Z,66.50
2023-04-03T12:16:33.758Z,66.19
2023-04-03T12:19:05.875Z,65.64
2023-04-03T12:21:37.313Z,66.49
2023-04-03T12:24:08.563Z,66.50
2023-04-03T12:26:58.246Z,66.94
2023-04-03T12:29:42.173Z,67.49
2023-04-03T12:32:30.480Z,67.92
2023-04-03T12:35:01.521Z,66.87
2023-04-03T12:37:55.292Z,66.78
2023-04-03T12:40:35.099Z,66.64
2023-04-03T12:43:24.375Z,67.00
2023-04-03T12:46:08.122Z,66.72
2023-04-03T12:48:52.383Z,66.51
2023-04-03T12:51:45.000Z,67.22
2023-04-03T12:54:23.725Z,67.31
2023-04-03T12:57:09.391Z,66.66
2023-04-03T12:59:37.924Z,65.86
2023-04-03T13:02:22.138Z,66.35
2023-04-03T13:04:54.822Z,66.47
2023-04-03T13:07:28.367Z,65.74
2023-04-03T13:09:58.755Z,65.77
2023-04-03T13:12:27.234Z,64.70
2023-04-03T13:14:58.852Z,64.59
2023-04-03T13:17:28.838Z,64.97
2023-04-03T13:20:12.134Z,64.91
2023-04-03T13:22:50.957Z,64.57
2023-04-03T13:25:22.341Z,63.78
2023-04-03T13:27:53.887Z,64.44
2023-04-03T13:30:33.547Z,63.54
2023-04-03T13:33:06.486Z,63.70
2023-04-03T13:35:37.437Z,63.81
2023-04-03T13:38:19.732Z,63.78
2023-04-03T13:41:01.768Z,64.69
2023-04-03T13:43:32.773Z,65.27
2023-04-03T13:46:21.809Z,65.26
2023-04-03T13:48:54.527Z,64.89
2023-04-03T13:51:25.179Z,65.01
2023-04-03T13:53:59.872Z,65.60
2023-04-03T13:56:38.633Z,66.14
2023-04-03T13:59:13.050Z,66.50
2023-04-03T14:01:43.906Z,66.35
2023-04-03T14:04:18.111Z,65.83
2023-04-03T14:06:48.009Z,66.18
2023-04-03T14:09:18.153Z,66.65
2023-04-03T14:11:48.406Z,67.06
2023-04-03T14:14:23.696Z,67.13
2023-04-03T14:16:56.132Z,66.81
2023-04-03T14:19:30.983Z,66.70
2023-04-03T14:22:00.605Z,66.35
2023-04-03T14:24:29.238Z,66.52
2023-04-03T14:26:58.365Z,66.55
2023-04-03T14:29:26.539Z,66.08
2023-04-03T14:32:07.466Z,66.75
2023-04-03T14:34:40.204Z,66.52
2023-04-03T14:37:18.305Z,66.27
2023-04-03T14:39:47.188Z,66.69
2023-04-03T14:42:22.767Z,66.42
2023-04-03T14:44:51.625Z,66.30
2023-04-03T14:47:31.408Z,66.32
2023-04-03T14:50:02.830Z,66.22
2023-04-03T14:52:37.015Z,65.91
2023-04-03T14:55:07.176Z,65.85
2023-04-03T14:57:36.051Z,65.72
2023-04-03T15:00:05.972Z,65.94
2023-04-03T15:02:40.864Z,65.91
2023-04-03T15:05:20.615Z,66.08
2023-04-03T15:07:56.221Z,66.35
2023-04-03T15:10:30.517Z,66.26
2023-04-03T15:12:58.894Z,66.70
2023-04-03T15:15:30.474Z,66.71
2023-04-03T15:17:59.342Z,66.93
2023-04-03T15:20:31.578Z,67.14
2023-04-03T15:23:03.668Z,66.80
2023-04-03T15:25:33.488Z,67.37
2023-04-03T15:28:02.080Z,67.68
2023-04-03T15:30:30.451Z,67.37
2023-04-03T15:32:58.572Z,66.92
2023-04-03T15:35:26.722Z,66.08
2023-04-03T15:37:54.989Z,66.42
2023-04-03T15:40:23.153Z,65.98
2023-04-03T15:42:53.078Z,66.69
2023-04-03T15:45:22.878Z,66.71
2023-04-03T15:47:51.835Z,66.03
2023-04-03T15:50:20.061Z,66.65
2023-04-03T15:52:48.064Z,66.30
2023-04-03T15:55:16.559Z,66.23
2023-04-03T15:57:44.788Z,66.03
2023-04-03T16:00:13.777Z,65.60
2023-04-03T16:02:43.210Z,65.95
2023-04-03T16:05:12.773Z,65.96
2023-04-03T16:07:50.057Z,66.26
2023-04-03T16:10:19.481Z,66.31
2023-04-03T16:12:47.811Z,66.00
2023-04-03T16:15:15.919Z,65.63
2023-04-03T16:17:45.888Z,65.09
2023-04-03T16:20:15.036Z,65.12
2023-04-03T16:22:44.029Z,65.05
2023-04-03T16:25:12.630Z,65.28
2023-04-03T16:27:41.619Z,65.77
2023-04-03T16:30:10.577Z,65.40
2023-04-03T16:32:39.936Z,65.03
2023-04-03T16:35:08.517Z,65.72
2023-04-03T16:37:37.171Z,65.71
2023-04-03T16:40:07.748Z,65.87
2023-04-03T16:42:37.368Z,64.89
2023-04-03T16:45:08.081Z,65.01
2023-04-03T16:47:36.415Z,65.24
2023-04-03T16:50:05.591Z,65.51
2023-04-03T16:52:34.212Z,66.17
2023-04-03T16:55:02.385Z,65.87
2023-04-03T16:57:30.618Z,66.09
2023-04-03T16:59:58.942Z,66.24
2023-04-03T17:02:27.810Z,65.85
2023-04-03T17:04:56.609Z,65.50
2023-04-03T17:07:26.115Z,65.54
2023-04-03T17:09:54.943Z,64.63
2023-04-03T17:12:23.288Z,64.21
2023-04-03T17:14:51.522Z,64.74
2023-04-03T17:17:23.915Z,64.99
2023-04-03T17:19:52.639Z,64.90
2023-04-03T17:22:21.509Z,64.07
2023-04-03T17:24:49.688Z,64.33
2023-04-03T17:27:18.278Z,64.26
2023-04-03T17:29:46.551Z,64.47
2023-04-03T17:32:14.700Z,64.06
2023-04-03T17:34:42.779Z,64.01
2023-04-03T17:37:11.462Z,63.91
2023-04-03T17:39:40.673Z,63.23
2023-04-03T17:42:08.694Z,63.28
2023-04-03T17:44:37.434Z,64.11
2023-04-03T17:47:05.565Z,63.90
2023-04-03T17:49:33.704Z,63.88
2023-04-03T17:52:01.869Z,64.23
2023-04-03T17:54:29.936Z,64.24
2023-04-03T17:56:57.976Z,64.10
2023-04-03T17:59:27.033Z,64.07
2023-04-03T18:01:57.076Z,64.03
2023-04-03T18:04:25.652Z,64.52
2023-04-03T18:06:56.123Z,64.17
2023-04-03T18:09:32.288Z,64.40
2023-04-03T18:12:07.341Z,63.86
2023-04-03T18:14:38.981Z,63.53
2023-04-03T18:17:07.770Z,63.79
2023-04-03T18:19:37.282Z,63.46
2023-04-03T18:22:08.670Z,63.63
2023-04-03T18:24:37.513Z,63.18
2023-04-03T18:27:10.908Z,63.84
2023-04-03T18:29:41.449Z,63.81
2023-04-03T18:32:12.250Z,63.70
2023-04-03T18:34:40.462Z,63.78
2023-04-03T18:37:08.743Z,63.72
2023-04-03T18:39:37.215Z,63.55
2023-04-03T18:42:10.205Z,63.86
2023-04-03T18:44:39.880Z,63.52
2023-04-03T18:47:10.165Z,63.71
2023-04-03T18:49:41.066Z,64.51
2023-04-03T18:52:10.715Z,63.80
2023-04-03T18:54:39.370Z,63.90
2023-04-03T18:57:07.740Z,63.89
2023-04-03T18:59:35.897Z,63.60
2023-04-03T19:02:06.036Z,63.79
2023-04-03T19:04:35.234Z,63.96
2023-04-03T19:07:05.671Z,64.12
2023-04-03T19:09:35.113Z,63.95
2023-04-03T19:12:03.244Z,64.38
2023-04-03T19:14:31.410Z,64.58
2023-04-03T19:16:59.671Z,64.45
2023-04-03T19:19:28.101Z,64.05
2023-04-03T19:21:56.319Z,63.74
2023-04-03T19:24:24.467Z,63.91
2023-04-03T19:26:53.411Z,63.80
2023-04-03T19:29:22.118Z,64.15
2023-04-03T19:31:50.210Z,64.11
2023-04-03T19:34:19.192Z,64.16
2023-04-03T19:36:48.151Z,64.22
2023-04-03T19:39:16.228Z,64.41
2023-04-03T19:41:46.422Z,64.44
2023-04-03T19:44:14.699Z,64.91
2023-04-03T19:46:51.179Z,64.52
2023-04-03T19:49:20.727Z,64.79
2023-04-03T19:51:49.142Z,65.04
2023-04-03T19:54:17.864Z,65.33
2023-04-03T19:57:07.364Z,65.52
2023-04-03T19:59:35.550Z,65.05
2023-04-03T20:02:03.672Z,64.40
2023-04-03T20:04:31.960Z,64.22
2023-04-03T20:07:00.552Z,64.30
2023-04-03T20:09:29.989Z,64.11
2023-04-03T20:12:00.896Z,64.33
2023-04-03T20:14:29.549Z,63.76
2023-04-03T20:16:58.472Z,63.58
2023-04-03T20:19:28.109Z,63.77
2023-04-03T20:21:56.475Z,63.74
2023-04-03T20:24:24.739Z,63.90
2023-04-03T20:26:52.928Z,64.17
2023-04-03T20:29:21.000Z,64.49
2023-04-03T20:31:49.405Z,64.70
2023-04-03T20:34:21.045Z,65.05
2023-04-03T20:36:50.251Z,65.16
2023-04-03T20:39:19.665Z,65.64
2023-04-03T20:41:47.917Z,65.88
2023-04-03T20:44:19.875Z,65.58
2023-04-03T20:46:53.512Z,65.91
2023-04-03T20:49:23.183Z,66.14
2023-04-03T20:51:52.795Z,66.45
2023-04-03T20:54:21.571Z,66.58
2023-04-03T20:56:50.001Z,66.74
2023-04-03T20:59:19.297Z,66.77
2023-04-03T21:01:47.831Z,66.72
2023-04-03T21:04:25.112Z,66.68
2023-04-03T21:07:31.020Z,66.75
2023-04-03T21:10:37.603Z,66.91
2023-04-03T21:13:43.104Z,66.88
2023-04-03T21:16:11.094Z,66.95
2023-04-03T21:18:48.220Z,66.79
2023-04-03T21:21:24.737Z,66.92
2023-04-03T21:23:54.638Z,66.59
2023-04-03T21:26:25.689Z,66.63
2023-04-03T21:28:54.607Z,66.56
2023-04-03T21:31:23.556Z,66.82
2023-04-03T21:33:51.645Z,67.12
2023-04-03T21:36:19.616Z,66.91
2023-04-03T21:38:48.813Z,66.68
2023-04-03T21:41:16.890Z,66.95
2023-04-03T21:43:47.105Z,67.22
2023-04-03T21:46:15.975Z,67.44
2023-04-03T21:48:45.734Z,67.24
2023-04-03T21:51:19.350Z,67.77
2023-04-03T21:53:47.499Z,67.76
2023-04-03T21:56:15.766Z,68.17
2023-04-03T21:58:44.089Z,68.88
2023-04-03T22:01:14.969Z,69.76
2023-04-03T22:03:47.340Z,69.63
2023-04-03T22:06:17.077Z,69.89
2023-04-03T22:08:45.518Z,70.18
2023-04-03T22:11:15.716Z,70.25
2023-04-03T22:13:44.483Z,70.36
2023-04-03T22:16:12.919Z,71.18
2023-04-03T22:18:41.102Z,71.24
2023-04-03T22:21:09.608Z,71.45
2023-04-03T22:23:38.172Z,71.46
2023-04-03T22:26:11.887Z,71.60
2023-04-03T22:28:45.574Z,72.00
2023-04-03T22:31:15.069Z,71.70
2023-04-03T22:33:44.732Z,71.78
2023-04-03T22:36:13.806Z,71.59
2023-04-03T22:38:46.917Z,71.77
2023-04-03T22:41:15.327Z,71.70
2023-04-03T22:43:43.327Z,71.27
2023-04-03T22:46:11.416Z,71.65
2023-04-03T22:48:48.406Z,70.91
2023-04-03T22:51:16.762Z,71.49
2023-04-03T22:53:44.795Z,71.36
2023-04-03T22:56:13.864Z,72.06
2023-04-03T22:58:42.310Z,72.14
2023-04-03T23:01:12.714Z,72.45
2023-04-03T23:03:42.153Z,72.51
2023-04-03T23:06:10.591Z,72.78
2023-04-03T23:08:39.230Z,73.08
2023-04-03T23:11:07.789Z,73.39
2023-04-03T23:13:36.373Z,73.48
2023-04-03T23:16:05.336Z,73.55
2023-04-03T23:18:33.560Z,73.26
2023-04-03T23:21:04.170Z,74.21
2023-04-03T23:23:32.772Z,74.25
2023-04-03T23:26:02.634Z,75.22
2023-04-03T23:28:31.357Z,75.46
2023-04-03T23:31:05.576Z,75.52
2023-04-03T23:33:34.077Z,76.45
2023-04-03T23:36:07.868Z,77.07
2023-04-03T23:38:36.880Z,76.78
2023-04-03T23:41:05.137Z,77.10
2023-04-03T23:43:34.130Z,77.54
2023-04-03T23:46:02.894Z,77.32
2023-04-03T23:48:31.101Z,77.65
2023-04-03T23:50:59.164Z,77.63
2023-04-03T23:53:28.332Z,77.75
2023-04-03T23:55:56.334Z,78.49
2023-04-03T23:58:24.317Z,79.26
